aviador You're here:

KLPC Decoded Metar

LOMPOC in CA, USA
Report Time2017-08-23 01:56:00
UTC Time2017-08-23 02:15:08
Flight Rules mvfr MVFR
Wind320° at 07 kt
W.Decomp.*RWY 25: 4.0 kt HW 5.7 kt RCW
W.Rank320° ranks 10
Current wind is below 320° avg. (7.6)
Visibility9999 m
Phenomena:N/A
Clouds:Overcast 011 Hf
Expected CloudBase > 1,200 ft AGL from Temp-Dew spread
Ceiling1,100 ft
Temp17°C (ISA +2)
Dew Point14°C (83% RH)
AAT15.8°C
QNH1016 hPa
Density Alt456 ft
Elevation89 ft
Report Wrong Elevation
Raw Report
KLPC 230156Z AUTO 32007KT 10SM OVC011 17/14 A3000 RMK AO2 SLP162
T01720144=

Extra information for KLPC:More info

Metar Taf Metar & Taf Last 4 Metars F.Rules Stats Wind Profile Meteogram Temp Stats Airport Information Weather charts Add Link Nearby VenuesMetar ALERT Operation Metar Decoded Social comments

AIRNAV info for KLPC